sensor_id;sensor_type;location;lat;lon;timestamp;P1;durP1;ratioP1;P2;durP2;ratioP2
29878;SDS011;16752;53.364;-1.488;2023-06-01T00:02:15;12.65;;;8.68;;
29878;SDS011;16752;53.364;-1.488;2023-06-01T00:04:59;12.32;;;9.57;;
29878;SDS011;16752;53.364;-1.488;2023-06-01T00:07:51;11.13;;;8.13;;
29878;SDS011;16752;53.364;-1.488;2023-06-01T00:10:35;13.50;;;8.10;;
29878;SDS011;16752;53.364;-1.488;2023-06-01T00:13:19;11.10;;;8.20;;
29878;SDS011;16752;53.364;-1.488;2023-06-01T00:16:03;10.98;;;8.02;;
29878;SDS011;16752;53.364;-1.488;2023-06-01T00:18:48;10.98;;;8.35;;
29878;SDS011;16752;53.364;-1.488;2023-06-01T00:21:32;13.20;;;8.13;;
29878;SDS011;16752;53.364;-1.488;2023-06-01T00:24:19;10.05;;;7.55;;
29878;SDS011;16752;53.364;-1.488;2023-06-01T00:27:04;16.13;;;9.32;;
29878;SDS011;16752;53.364;-1.488;2023-06-01T00:29:49;14.40;;;8.65;;
29878;SDS011;16752;53.364;-1.488;2023-06-01T00:32:33;14.98;;;9.90;;
29878;SDS011;16752;53.364;-1.488;2023-06-01T00:35:16;14.15;;;8.75;;
29878;SDS011;16752;53.364;-1.488;2023-06-01T00:38:01;13.40;;;9.93;;
29878;SDS011;16752;53.364;-1.488;2023-06-01T00:40:51;14.07;;;9.02;;
29878;SDS011;16752;53.364;-1.488;2023-06-01T00:43:36;14.38;;;8.95;;
29878;SDS011;16752;53.364;-1.488;2023-06-01T00:46:20;13.57;;;8.35;;
29878;SDS011;16752;53.364;-1.488;2023-06-01T00:49:14;10.07;;;7.90;;
29878;SDS011;16752;53.364;-1.488;2023-06-01T00:51:58;12.52;;;8.52;;
29878;SDS011;16752;53.364;-1.488;2023-06-01T00:54:42;12.90;;;7.75;;
29878;SDS011;16752;53.364;-1.488;2023-06-01T00:57:26;10.95;;;7.43;;
29878;SDS011;16752;53.364;-1.488;2023-06-01T01:00:12;14.15;;;8.00;;
29878;SDS011;16752;53.364;-1.488;2023-06-01T01:02:56;13.32;;;8.85;;
29878;SDS011;16752;53.364;-1.488;2023-06-01T01:05:41;9.45;;;8.18;;
29878;SDS011;16752;53.364;-1.488;2023-06-01T01:08:32;11.85;;;8.10;;
29878;SDS011;16752;53.364;-1.488;2023-06-01T01:11:26;12.98;;;8.57;;
29878;SDS011;16752;53.364;-1.488;2023-06-01T01:14:20;9.27;;;7.22;;
29878;SDS011;16752;53.364;-1.488;2023-06-01T01:20:09;15.35;;;8.85;;
29878;SDS011;16752;53.364;-1.488;2023-06-01T01:29:08;14.35;;;9.75;;
29878;SDS011;16752;53.364;-1.488;2023-06-01T01:31:54;14.52;;;9.23;;
29878;SDS011;16752;53.364;-1.488;2023-06-01T01:34:43;15.80;;;10.45;;
29878;SDS011;16752;53.364;-1.488;2023-06-01T01:37:33;17.63;;;9.98;;
29878;SDS011;16752;53.364;-1.488;2023-06-01T01:40:18;13.30;;;9.13;;
29878;SDS011;16752;53.364;-1.488;2023-06-01T01:43:05;15.32;;;10.73;;
29878;SDS011;16752;53.364;-1.488;2023-06-01T01:45:52;14.45;;;9.70;;
29878;SDS011;16752;53.364;-1.488;2023-06-01T01:54:54;13.63;;;10.40;;
29878;SDS011;16752;53.364;-1.488;2023-06-01T01:57:39;15.88;;;10.70;;
29878;SDS011;16752;53.364;-1.488;2023-06-01T02:00:24;20.65;;;11.60;;
29878;SDS011;16752;53.364;-1.488;2023-06-01T02:03:12;15.45;;;10.60;;
29878;SDS011;16752;53.364;-1.488;2023-06-01T02:06:05;16.75;;;10.05;;
29878;SDS011;16752;53.364;-1.488;2023-06-01T02:08:50;16.75;;;10.23;;
29878;SDS011;16752;53.364;-1.488;2023-06-01T02:11:34;16.88;;;10.07;;
29878;SDS011;16752;53.364;-1.488;2023-06-01T02:14:19;14.18;;;11.32;;
29878;SDS011;16752;53.364;-1.488;2023-06-01T02:17:04;14.80;;;11.18;;
29878;SDS011;16752;53.364;-1.488;2023-06-01T02:19:49;16.80;;;10.65;;
29878;SDS011;16752;53.364;-1.488;2023-06-01T02:22:34;14.45;;;9.38;;
29878;SDS011;16752;53.364;-1.488;2023-06-01T02:25:18;14.25;;;10.52;;
29878;SDS011;16752;53.364;-1.488;2023-06-01T02:28:07;11.77;;;8.52;;
29878;SDS011;16752;53.364;-1.488;2023-06-01T02:30:53;13.32;;;8.68;;
29878;SDS011;16752;53.364;-1.488;2023-06-01T02:33:38;18.50;;;9.68;;
29878;SDS011;16752;53.364;-1.488;2023-06-01T02:36:21;19.77;;;9.02;;
29878;SDS011;16752;53.364;-1.488;2023-06-01T02:39:08;12.15;;;10.00;;
29878;SDS011;16752;53.364;-1.488;2023-06-01T02:41:52;14.30;;;9.57;;
29878;SDS011;16752;53.364;-1.488;2023-06-01T02:44:36;13.35;;;9.02;;
29878;SDS011;16752;53.364;-1.488;2023-06-01T02:47:20;13.80;;;8.40;;
29878;SDS011;16752;53.364;-1.488;2023-06-01T02:50:04;11.43;;;7.70;;
29878;SDS011;16752;53.364;-1.488;2023-06-01T02:52:52;12.45;;;8.15;;
29878;SDS011;16752;53.364;-1.488;2023-06-01T02:55:36;14.25;;;8.00;;
29878;SDS011;16752;53.364;-1.488;2023-06-01T02:58:20;12.77;;;8.95;;
29878;SDS011;16752;53.364;-1.488;2023-06-01T03:01:04;15.98;;;11.15;;
29878;SDS011;16752;53.364;-1.488;2023-06-01T03:03:49;16.73;;;10.90;;
29878;SDS011;16752;53.364;-1.488;2023-06-01T03:06:35;18.60;;;11.85;;
29878;SDS011;16752;53.364;-1.488;2023-06-01T03:09:20;17.45;;;12.68;;
29878;SDS011;16752;53.364;-1.488;2023-06-01T03:12:04;16.73;;;12.77;;
29878;SDS011;16752;53.364;-1.488;2023-06-01T03:14:49;24.10;;;13.40;;
29878;SDS011;16752;53.364;-1.488;2023-06-01T03:17:33;14.85;;;10.07;;
29878;SDS011;16752;53.364;-1.488;2023-06-01T03:20:17;20.17;;;12.70;;
29878;SDS011;16752;53.364;-1.488;2023-06-01T03:23:02;16.70;;;11.10;;
29878;SDS011;16752;53.364;-1.488;2023-06-01T03:25:46;17.33;;;11.70;;
29878;SDS011;16752;53.364;-1.488;2023-06-01T03:28:30;15.50;;;12.25;;
29878;SDS011;16752;53.364;-1.488;2023-06-01T03:31:14;13.52;;;10.63;;
29878;SDS011;16752;53.364;-1.488;2023-06-01T03:33:59;15.60;;;11.23;;
29878;SDS011;16752;53.364;-1.488;2023-06-01T03:36:43;19.90;;;11.40;;
29878;SDS011;16752;53.364;-1.488;2023-06-01T03:39:31;15.63;;;11.30;;
29878;SDS011;16752;53.364;-1.488;2023-06-01T03:42:19;13.60;;;10.77;;
29878;SDS011;16752;53.364;-1.488;2023-06-01T03:45:04;19.83;;;11.82;;
29878;SDS011;16752;53.364;-1.488;2023-06-01T03:47:48;14.15;;;9.55;;
29878;SDS011;16752;53.364;-1.488;2023-06-01T03:50:32;14.75;;;9.20;;
29878;SDS011;16752;53.364;-1.488;2023-06-01T03:53:16;11.77;;;7.75;;
29878;SDS011;16752;53.364;-1.488;2023-06-01T03:56:00;14.23;;;8.40;;
29878;SDS011;16752;53.364;-1.488;2023-06-01T03:58:45;13.20;;;8.10;;
29878;SDS011;16752;53.364;-1.488;2023-06-01T04:01:32;15.57;;;10.10;;
29878;SDS011;16752;53.364;-1.488;2023-06-01T04:04:18;15.30;;;9.50;;
29878;SDS011;16752;53.364;-1.488;2023-06-01T04:07:09;17.95;;;10.02;;
29878;SDS011;16752;53.364;-1.488;2023-06-01T04:09:53;18.60;;;11.27;;
29878;SDS011;16752;53.364;-1.488;2023-06-01T04:12:37;20.30;;;12.65;;
29878;SDS011;16752;53.364;-1.488;2023-06-01T04:15:21;14.30;;;9.98;;
29878;SDS011;16752;53.364;-1.488;2023-06-01T04:18:06;17.55;;;11.48;;
29878;SDS011;16752;53.364;-1.488;2023-06-01T04:20:50;15.63;;;11.45;;
29878;SDS011;16752;53.364;-1.488;2023-06-01T04:23:34;19.73;;;12.57;;
29878;SDS011;16752;53.364;-1.488;2023-06-01T04:26:19;22.33;;;12.40;;
29878;SDS011;16752;53.364;-1.488;2023-06-01T04:29:03;16.58;;;11.05;;
29878;SDS011;16752;53.364;-1.488;2023-06-01T04:31:47;17.27;;;12.98;;
29878;SDS011;16752;53.364;-1.488;2023-06-01T04:34:31;16.63;;;12.10;;
29878;SDS011;16752;53.364;-1.488;2023-06-01T04:37:16;18.00;;;12.25;;
29878;SDS011;16752;53.364;-1.488;2023-06-01T04:40:04;19.17;;;11.10;;
29878;SDS011;16752;53.364;-1.488;2023-06-01T04:42:52;16.17;;;9.73;;
29878;SDS011;16752;53.364;-1.488;2023-06-01T04:45:39;14.38;;;8.77;;
29878;SDS011;16752;53.364;-1.488;2023-06-01T04:48:24;16.33;;;9.73;;
29878;SDS011;16752;53.364;-1.488;2023-06-01T04:51:08;15.27;;;9.68;;
29878;SDS011;16752;53.364;-1.488;2023-06-01T04:53:53;15.55;;;10.02;;
29878;SDS011;16752;53.364;-1.488;2023-06-01T04:56:37;11.23;;;8.93;;
29878;SDS011;16752;53.364;-1.488;2023-06-01T04:59:24;12.63;;;8.93;;
29878;SDS011;16752;53.364;-1.488;2023-06-01T05:02:09;15.50;;;10.80;;
29878;SDS011;16752;53.364;-1.488;2023-06-01T05:04:52;14.98;;;9.25;;
29878;SDS011;16752;53.364;-1.488;2023-06-01T05:07:37;15.07;;;9.90;;
29878;SDS011;16752;53.364;-1.488;2023-06-01T05:10:23;13.48;;;9.85;;
29878;SDS011;16752;53.364;-1.488;2023-06-01T05:13:06;16.10;;;9.88;;
29878;SDS011;16752;53.364;-1.488;2023-06-01T05:15:50;14.32;;;10.70;;
29878;SDS011;16752;53.364;-1.488;2023-06-01T05:18:35;16.90;;;10.10;;
29878;SDS011;16752;53.364;-1.488;2023-06-01T05:21:20;14.52;;;9.25;;
29878;SDS011;16752;53.364;-1.488;2023-06-01T05:24:05;20.10;;;10.45;;
29878;SDS011;16752;53.364;-1.488;2023-06-01T05:26:50;20.83;;;10.93;;
29878;SDS011;16752;53.364;-1.488;2023-06-01T05:29:34;20.67;;;11.43;;
29878;SDS011;16752;53.364;-1.488;2023-06-01T05:32:18;19.33;;;13.23;;
29878;SDS011;16752;53.364;-1.488;2023-06-01T05:35:02;20.75;;;12.30;;
29878;SDS011;16752;53.364;-1.488;2023-06-01T05:37:48;17.85;;;11.85;;
29878;SDS011;16752;53.364;-1.488;2023-06-01T05:40:32;16.75;;;11.07;;
29878;SDS011;16752;53.364;-1.488;2023-06-01T05:43:16;17.85;;;11.73;;
29878;SDS011;16752;53.364;-1.488;2023-06-01T05:46:07;16.25;;;10.88;;
29878;SDS011;16752;53.364;-1.488;2023-06-01T05:48:51;17.08;;;10.75;;
29878;SDS011;16752;53.364;-1.488;2023-06-01T05:51:35;18.50;;;10.48;;
29878;SDS011;16752;53.364;-1.488;2023-06-01T05:54:22;14.35;;;10.38;;
29878;SDS011;16752;53.364;-1.488;2023-06-01T05:57:06;17.85;;;12.38;;
29878;SDS011;16752;53.364;-1.488;2023-06-01T05:59:50;19.90;;;11.20;;
29878;SDS011;16752;53.364;-1.488;2023-06-01T06:02:36;16.00;;;10.85;;
29878;SDS011;16752;53.364;-1.488;2023-06-01T06:05:36;14.05;;;10.55;;
29878;SDS011;16752;53.364;-1.488;2023-06-01T06:08:20;13.32;;;9.85;;
29878;SDS011;16752;53.364;-1.488;2023-06-01T06:11:04;11.25;;;8.55;;
29878;SDS011;16752;53.364;-1.488;2023-06-01T06:13:48;17.58;;;10.02;;
29878;SDS011;16752;53.364;-1.488;2023-06-01T06:16:36;13.77;;;9.23;;
29878;SDS011;16752;53.364;-1.488;2023-06-01T06:19:20;15.02;;;8.57;;
29878;SDS011;16752;53.364;-1.488;2023-06-01T06:22:04;15.55;;;10.05;;
29878;SDS011;16752;53.364;-1.488;2023-06-01T06:24:48;17.20;;;10.15;;
29878;SDS011;16752;53.364;-1.488;2023-06-01T06:27:33;15.95;;;9.38;;
29878;SDS011;16752;53.364;-1.488;2023-06-01T06:30:17;11.57;;;8.52;;
29878;SDS011;16752;53.364;-1.488;2023-06-01T06:33:01;16.95;;;10.13;;
29878;SDS011;16752;53.364;-1.488;2023-06-01T06:35:48;12.35;;;8.95;;
29878;SDS011;16752;53.364;-1.488;2023-06-01T06:38:32;16.33;;;10.27;;
29878;SDS011;16752;53.364;-1.488;2023-06-01T06:41:16;13.15;;;8.45;;
29878;SDS011;16752;53.364;-1.488;2023-06-01T06:44:00;10.45;;;8.32;;
29878;SDS011;16752;53.364;-1.488;2023-06-01T06:46:44;15.82;;;9.90;;
29878;SDS011;16752;53.364;-1.488;2023-06-01T06:49:28;12.98;;;9.00;;
29878;SDS011;16752;53.364;-1.488;2023-06-01T06:52:12;12.48;;;8.95;;
29878;SDS011;16752;53.364;-1.488;2023-06-01T06:54:56;14.50;;;8.48;;
29878;SDS011;16752;53.364;-1.488;2023-06-01T06:57:40;11.48;;;7.47;;
29878;SDS011;16752;53.364;-1.488;2023-06-01T07:00:25;12.50;;;7.05;;
29878;SDS011;16752;53.364;-1.488;2023-06-01T07:03:09;11.93;;;7.43;;
29878;SDS011;16752;53.364;-1.488;2023-06-01T07:05:54;13.85;;;7.63;;
29878;SDS011;16752;53.364;-1.488;2023-06-01T07:08:38;9.52;;;7.53;;
29878;SDS011;16752;53.364;-1.488;2023-06-01T07:11:23;9.50;;;6.97;;
29878;SDS011;16752;53.364;-1.488;2023-06-01T07:14:07;9.18;;;7.68;;
29878;SDS011;16752;53.364;-1.488;2023-06-01T07:16:51;14.40;;;7.63;;
29878;SDS011;16752;53.364;-1.488;2023-06-01T07:19:38;11.02;;;7.30;;
29878;SDS011;16752;53.364;-1.488;2023-06-01T07:22:22;12.77;;;7.00;;
29878;SDS011;16752;53.364;-1.488;2023-06-01T07:25:06;14.55;;;7.00;;
29878;SDS011;16752;53.364;-1.488;2023-06-01T07:27:53;12.25;;;7.75;;
29878;SDS011;16752;53.364;-1.488;2023-06-01T07:30:40;11.88;;;7.82;;
29878;SDS011;16752;53.364;-1.488;2023-06-01T07:33:24;12.25;;;8.05;;
29878;SDS011;16752;53.364;-1.488;2023-06-01T07:36:09;11.88;;;8.20;;
29878;SDS011;16752;53.364;-1.488;2023-06-01T07:38:53;10.35;;;7.75;;
29878;SDS011;16752;53.364;-1.488;2023-06-01T07:41:37;17.00;;;8.10;;
29878;SDS011;16752;53.364;-1.488;2023-06-01T07:44:23;9.25;;;7.05;;
29878;SDS011;16752;53.364;-1.488;2023-06-01T07:47:07;8.75;;;6.45;;
29878;SDS011;16752;53.364;-1.488;2023-06-01T07:49:52;9.90;;;6.97;;
29878;SDS011;16752;53.364;-1.488;2023-06-01T07:52:36;14.98;;;7.85;;
29878;SDS011;16752;53.364;-1.488;2023-06-01T07:55:21;11.23;;;8.23;;
29878;SDS011;16752;53.364;-1.488;2023-06-01T07:58:14;12.02;;;8.43;;
29878;SDS011;16752;53.364;-1.488;2023-06-01T08:00:58;10.57;;;7.10;;
29878;SDS011;16752;53.364;-1.488;2023-06-01T08:03:42;9.02;;;6.65;;
29878;SDS011;16752;53.364;-1.488;2023-06-01T08:06:27;11.85;;;6.97;;
29878;SDS011;16752;53.364;-1.488;2023-06-01T08:09:12;8.88;;;6.70;;
29878;SDS011;16752;53.364;-1.488;2023-06-01T08:12:00;14.75;;;6.53;;
29878;SDS011;16752;53.364;-1.488;2023-06-01T08:14:44;11.27;;;6.32;;
29878;SDS011;16752;53.364;-1.488;2023-06-01T08:17:29;10.13;;;5.82;;
29878;SDS011;16752;53.364;-1.488;2023-06-01T08:20:13;12.70;;;6.28;;
29878;SDS011;16752;53.364;-1.488;2023-06-01T08:22:58;5.82;;;5.13;;
29878;SDS011;16752;53.364;-1.488;2023-06-01T08:25:43;11.13;;;5.30;;
29878;SDS011;16752;53.364;-1.488;2023-06-01T08:28:28;11.10;;;5.72;;
29878;SDS011;16752;53.364;-1.488;2023-06-01T08:31:12;8.57;;;5.30;;
29878;SDS011;16752;53.364;-1.488;2023-06-01T08:33:56;11.27;;;5.93;;
29878;SDS011;16752;53.364;-1.488;2023-06-01T08:36:40;10.40;;;5.88;;
29878;SDS011;16752;53.364;-1.488;2023-06-01T08:39:24;7.07;;;5.22;;
29878;SDS011;16752;53.364;-1.488;2023-06-01T08:45:22;9.45;;;5.80;;
29878;SDS011;16752;53.364;-1.488;2023-06-01T08:48:08;7.47;;;5.72;;
29878;SDS011;16752;53.364;-1.488;2023-06-01T08:51:00;10.88;;;5.85;;
29878;SDS011;16752;53.364;-1.488;2023-06-01T08:53:51;12.40;;;6.20;;
29878;SDS011;16752;53.364;-1.488;2023-06-01T08:56:38;9.15;;;5.65;;
29878;SDS011;16752;53.364;-1.488;2023-06-01T08:59:25;7.85;;;5.93;;
29878;SDS011;16752;53.364;-1.488;2023-06-01T09:02:12;13.75;;;6.07;;
29878;SDS011;16752;53.364;-1.488;2023-06-01T09:04:57;10.35;;;7.10;;
29878;SDS011;16752;53.364;-1.488;2023-06-01T09:07:50;13.95;;;7.22;;
29878;SDS011;16752;53.364;-1.488;2023-06-01T09:10:35;9.30;;;6.40;;
29878;SDS011;16752;53.364;-1.488;2023-06-01T09:16:20;11.13;;;6.03;;
29878;SDS011;16752;53.364;-1.488;2023-06-01T09:19:04;7.95;;;6.40;;
29878;SDS011;16752;53.364;-1.488;2023-06-01T09:21:57;10.95;;;6.00;;
29878;SDS011;16752;53.364;-1.488;2023-06-01T09:24:47;8.40;;;5.95;;
29878;SDS011;16752;53.364;-1.488;2023-06-01T09:27:49;8.10;;;6.07;;
29878;SDS011;16752;53.364;-1.488;2023-06-01T09:30:39;12.70;;;7.13;;
29878;SDS011;16752;53.364;-1.488;2023-06-01T09:33:24;11.10;;;6.03;;
29878;SDS011;16752;53.364;-1.488;2023-06-01T09:36:09;6.65;;;5.22;;
29878;SDS011;16752;53.364;-1.488;2023-06-01T09:39:11;9.95;;;6.65;;
29878;SDS011;16752;53.364;-1.488;2023-06-01T09:42:00;9.65;;;6.28;;
29878;SDS011;16752;53.364;-1.488;2023-06-01T09:44:45;8.30;;;5.90;;
29878;SDS011;16752;53.364;-1.488;2023-06-01T09:47:29;7.82;;;5.05;;
29878;SDS011;16752;53.364;-1.488;2023-06-01T09:50:35;7.82;;;5.70;;
29878;SDS011;16752;53.364;-1.488;2023-06-01T09:53:21;14.13;;;5.35;;
29878;SDS011;16752;53.364;-1.488;2023-06-01T09:56:11;9.10;;;4.57;;
29878;SDS011;16752;53.364;-1.488;2023-06-01T09:58:57;7.88;;;4.90;;
29878;SDS011;16752;53.364;-1.488;2023-06-01T10:01:56;8.00;;;4.55;;
29878;SDS011;16752;53.364;-1.488;2023-06-01T10:04:42;6.32;;;4.45;;
29878;SDS011;16752;53.364;-1.488;2023-06-01T10:07:31;4.38;;;3.97;;
29878;SDS011;16752;53.364;-1.488;2023-06-01T10:10:17;7.63;;;3.70;;
29878;SDS011;16752;53.364;-1.488;2023-06-01T10:13:01;6.65;;;3.97;;
29878;SDS011;16752;53.364;-1.488;2023-06-01T10:16:07;6.45;;;3.50;;
29878;SDS011;16752;53.364;-1.488;2023-06-01T10:18:51;6.90;;;4.05;;
29878;SDS011;16752;53.364;-1.488;2023-06-01T10:21:36;8.57;;;4.00;;
29878;SDS011;16752;53.364;-1.488;2023-06-01T10:24:20;4.63;;;3.25;;
29878;SDS011;16752;53.364;-1.488;2023-06-01T10:29:51;5.63;;;3.08;;
29878;SDS011;16752;53.364;-1.488;2023-06-01T10:38:33;5.35;;;2.95;;
29878;SDS011;16752;53.364;-1.488;2023-06-01T10:41:30;7.90;;;3.22;;
29878;SDS011;16752;53.364;-1.488;2023-06-01T10:53:53;7.22;;;3.85;;
29878;SDS011;16752;53.364;-1.488;2023-06-01T11:00:08;7.55;;;3.90;;
29878;SDS011;16752;53.364;-1.488;2023-06-01T11:14:36;5.43;;;3.05;;
29878;SDS011;16752;53.364;-1.488;2023-06-01T11:17:27;5.03;;;2.45;;
29878;SDS011;16752;53.364;-1.488;2023-06-01T11:20:15;5.90;;;3.47;;
29878;SDS011;16752;53.364;-1.488;2023-06-01T11:23:03;4.63;;;2.83;;
29878;SDS011;16752;53.364;-1.488;2023-06-01T11:25:56;6.25;;;3.28;;
29878;SDS011;16752;53.364;-1.488;2023-06-01T11:28:45;4.85;;;3.22;;
29878;SDS011;16752;53.364;-1.488;2023-06-01T11:31:36;4.88;;;3.13;;
29878;SDS011;16752;53.364;-1.488;2023-06-01T11:34:31;4.00;;;3.17;;
29878;SDS011;16752;53.364;-1.488;2023-06-01T11:37:58;4.07;;;3.33;;
29878;SDS011;16752;53.364;-1.488;2023-06-01T11:40:58;5.57;;;3.80;;
29878;SDS011;16752;53.364;-1.488;2023-06-01T11:46:37;5.13;;;3.28;;
29878;SDS011;16752;53.364;-1.488;2023-06-01T11:49:21;3.88;;;2.85;;
29878;SDS011;16752;53.364;-1.488;2023-06-01T11:52:07;2.85;;;2.55;;
29878;SDS011;16752;53.364;-1.488;2023-06-01T11:54:55;4.20;;;2.67;;
29878;SDS011;16752;53.364;-1.488;2023-06-01T11:57:52;2.65;;;2.45;;
29878;SDS011;16752;53.364;-1.488;2023-06-01T12:00:38;4.88;;;2.38;;
29878;SDS011;16752;53.364;-1.488;2023-06-01T12:03:28;3.45;;;3.10;;
29878;SDS011;16752;53.364;-1.488;2023-06-01T12:06:20;5.82;;;2.30;;
29878;SDS011;16752;53.364;-1.488;2023-06-01T12:09:19;3.67;;;2.75;;
29878;SDS011;16752;53.364;-1.488;2023-06-01T12:12:05;4.03;;;2.60;;
29878;SDS011;16752;53.364;-1.488;2023-06-01T12:15:03;4.38;;;3.47;;
29878;SDS011;16752;53.364;-1.488;2023-06-01T12:17:52;4.68;;;3.28;;
29878;SDS011;16752;53.364;-1.488;2023-06-01T12:20:38;3.75;;;3.42;;
29878;SDS011;16752;53.364;-1.488;2023-06-01T12:23:30;4.93;;;3.78;;
29878;SDS011;16752;53.364;-1.488;2023-06-01T12:26:14;6.85;;;3.47;;
29878;SDS011;16752;53.364;-1.488;2023-06-01T12:28:58;5.55;;;4.35;;
29878;SDS011;16752;53.364;-1.488;2023-06-01T12:35:10;5.13;;;3.40;;
29878;SDS011;16752;53.364;-1.488;2023-06-01T12:38:07;3.70;;;3.35;;
29878;SDS011;16752;53.364;-1.488;2023-06-01T12:41:06;5.20;;;3.47;;
29878;SDS011;16752;53.364;-1.488;2023-06-01T12:43:55;4.10;;;2.88;;
29878;SDS011;16752;53.364;-1.488;2023-06-01T12:46:46;3.67;;;3.38;;
29878;SDS011;16752;53.364;-1.488;2023-06-01T12:49:30;4.00;;;3.30;;
29878;SDS011;16752;53.364;-1.488;2023-06-01T12:52:14;5.15;;;3.08;;
29878;SDS011;16752;53.364;-1.488;2023-06-01T12:54:59;3.85;;;3.20;;
29878;SDS011;16752;53.364;-1.488;2023-06-01T12:57:44;3.53;;;3.00;;
29878;SDS011;16752;53.364;-1.488;2023-06-01T13:00:40;4.55;;;3.25;;
29878;SDS011;16752;53.364;-1.488;2023-06-01T13:03:27;6.32;;;3.15;;
29878;SDS011;16752;53.364;-1.488;2023-06-01T13:06:11;3.38;;;2.35;;
29878;SDS011;16752;53.364;-1.488;2023-06-01T13:08:55;3.72;;;3.42;;
29878;SDS011;16752;53.364;-1.488;2023-06-01T13:11:43;8.38;;;2.97;;
29878;SDS011;16752;53.364;-1.488;2023-06-01T13:14:27;3.65;;;3.25;;
29878;SDS011;16752;53.364;-1.488;2023-06-01T13:17:11;3.95;;;2.85;;
29878;SDS011;16752;53.364;-1.488;2023-06-01T13:20:05;3.50;;;3.17;;
29878;SDS011;16752;53.364;-1.488;2023-06-01T13:23:00;5.13;;;3.40;;
29878;SDS011;16752;53.364;-1.488;2023-06-01T13:25:44;2.72;;;2.45;;
29878;SDS011;16752;53.364;-1.488;2023-06-01T13:28:29;3.58;;;3.10;;
29878;SDS011;16752;53.364;-1.488;2023-06-01T13:31:14;4.13;;;2.65;;
29878;SDS011;16752;53.364;-1.488;2023-06-01T13:34:12;4.53;;;2.72;;
29878;SDS011;16752;53.364;-1.488;2023-06-01T13:36:59;4.90;;;3.22;;
29878;SDS011;16752;53.364;-1.488;2023-06-01T13:39:56;5.20;;;3.30;;
29878;SDS011;16752;53.364;-1.488;2023-06-01T13:42:42;4.22;;;3.53;;
29878;SDS011;16752;53.364;-1.488;2023-06-01T13:45:35;3.92;;;2.72;;
29878;SDS011;16752;53.364;-1.488;2023-06-01T13:48:19;6.30;;;3.05;;
29878;SDS011;16752;53.364;-1.488;2023-06-01T13:51:04;3.22;;;2.53;;
29878;SDS011;16752;53.364;-1.488;2023-06-01T13:54:06;3.20;;;2.60;;
29878;SDS011;16752;53.364;-1.488;2023-06-01T13:56:50;3.25;;;2.70;;
29878;SDS011;16752;53.364;-1.488;2023-06-01T13:59:34;5.53;;;2.95;;
29878;SDS011;16752;53.364;-1.488;2023-06-01T14:02:21;4.85;;;2.50;;
29878;SDS011;16752;53.364;-1.488;2023-06-01T14:05:08;6.80;;;2.95;;
29878;SDS011;16752;53.364;-1.488;2023-06-01T14:10:52;4.57;;;3.22;;
29878;SDS011;16752;53.364;-1.488;2023-06-01T14:13:36;6.28;;;3.50;;
29878;SDS011;16752;53.364;-1.488;2023-06-01T14:16:20;8.20;;;3.33;;
29878;SDS011;16752;53.364;-1.488;2023-06-01T14:19:04;6.50;;;3.63;;
29878;SDS011;16752;53.364;-1.488;2023-06-01T14:21:48;4.05;;;3.08;;
29878;SDS011;16752;53.364;-1.488;2023-06-01T14:24:32;4.40;;;2.38;;
29878;SDS011;16752;53.364;-1.488;2023-06-01T14:27:16;4.13;;;2.08;;
29878;SDS011;16752;53.364;-1.488;2023-06-01T14:32:54;3.08;;;2.53;;
29878;SDS011;16752;53.364;-1.488;2023-06-01T14:35:38;8.55;;;2.72;;
29878;SDS011;16752;53.364;-1.488;2023-06-01T14:38:22;4.10;;;2.28;;
29878;SDS011;16752;53.364;-1.488;2023-06-01T14:41:06;3.05;;;2.30;;
29878;SDS011;16752;53.364;-1.488;2023-06-01T14:43:53;4.22;;;1.80;;
29878;SDS011;16752;53.364;-1.488;2023-06-01T14:46:37;2.58;;;1.88;;
29878;SDS011;16752;53.364;-1.488;2023-06-01T14:49:27;2.38;;;1.83;;
29878;SDS011;16752;53.364;-1.488;2023-06-01T14:52:11;2.97;;;1.70;;
29878;SDS011;16752;53.364;-1.488;2023-06-01T14:54:58;2.30;;;1.23;;
29878;SDS011;16752;53.364;-1.488;2023-06-01T14:57:42;3.53;;;1.27;;
29878;SDS011;16752;53.364;-1.488;2023-06-01T15:00:27;2.40;;;1.80;;
29878;SDS011;16752;53.364;-1.488;2023-06-01T15:03:11;5.25;;;2.05;;
29878;SDS011;16752;53.364;-1.488;2023-06-01T15:05:56;4.57;;;1.73;;
29878;SDS011;16752;53.364;-1.488;2023-06-01T15:08:39;4.40;;;2.10;;
29878;SDS011;16752;53.364;-1.488;2023-06-01T15:11:26;6.65;;;1.98;;
29878;SDS011;16752;53.364;-1.488;2023-06-01T15:14:21;5.50;;;1.90;;
29878;SDS011;16752;53.364;-1.488;2023-06-01T15:20:59;6.68;;;1.80;;
29878;SDS011;16752;53.364;-1.488;2023-06-01T15:23:45;5.75;;;2.10;;
29878;SDS011;16752;53.364;-1.488;2023-06-01T15:26:29;3.13;;;1.80;;
29878;SDS011;16752;53.364;-1.488;2023-06-01T15:29:13;2.88;;;2.10;;
29878;SDS011;16752;53.364;-1.488;2023-06-01T15:32:06;5.18;;;1.92;;
29878;SDS011;16752;53.364;-1.488;2023-06-01T15:34:53;5.82;;;2.38;;
29878;SDS011;16752;53.364;-1.488;2023-06-01T15:37:45;3.67;;;2.10;;
29878;SDS011;16752;53.364;-1.488;2023-06-01T15:40:30;3.88;;;2.05;;
29878;SDS011;16752;53.364;-1.488;2023-06-01T15:43:19;7.57;;;2.67;;
29878;SDS011;16752;53.364;-1.488;2023-06-01T15:46:06;4.63;;;2.15;;
29878;SDS011;16752;53.364;-1.488;2023-06-01T15:49:04;6.20;;;2.90;;
29878;SDS011;16752;53.364;-1.488;2023-06-01T15:51:51;4.75;;;2.35;;
29878;SDS011;16752;53.364;-1.488;2023-06-01T15:54:36;6.78;;;2.70;;
29878;SDS011;16752;53.364;-1.488;2023-06-01T16:00:50;6.53;;;2.60;;
29878;SDS011;16752;53.364;-1.488;2023-06-01T16:03:34;10.75;;;2.85;;
29878;SDS011;16752;53.364;-1.488;2023-06-01T16:06:21;6.35;;;2.88;;
29878;SDS011;16752;53.364;-1.488;2023-06-01T16:12:29;6.90;;;2.72;;
29878;SDS011;16752;53.364;-1.488;2023-06-01T16:15:16;7.80;;;2.83;;
29878;SDS011;16752;53.364;-1.488;2023-06-01T16:18:01;6.50;;;2.85;;
29878;SDS011;16752;53.364;-1.488;2023-06-01T16:21:03;6.60;;;3.60;;
29878;SDS011;16752;53.364;-1.488;2023-06-01T16:23:47;8.30;;;3.05;;
29878;SDS011;16752;53.364;-1.488;2023-06-01T16:26:31;11.27;;;2.95;;
29878;SDS011;16752;53.364;-1.488;2023-06-01T16:29:16;9.27;;;3.05;;
29878;SDS011;16752;53.364;-1.488;2023-06-01T16:32:03;6.63;;;3.53;;
29878;SDS011;16752;53.364;-1.488;2023-06-01T16:34:48;5.13;;;2.83;;
29878;SDS011;16752;53.364;-1.488;2023-06-01T16:37:32;8.40;;;2.85;;
29878;SDS011;16752;53.364;-1.488;2023-06-01T16:40:16;7.57;;;3.25;;
29878;SDS011;16752;53.364;-1.488;2023-06-01T16:43:03;13.75;;;3.40;;
29878;SDS011;16752;53.364;-1.488;2023-06-01T16:45:47;9.50;;;2.97;;
29878;SDS011;16752;53.364;-1.488;2023-06-01T16:48:31;5.93;;;3.10;;
29878;SDS011;16752;53.364;-1.488;2023-06-01T16:51:15;11.38;;;3.75;;
29878;SDS011;16752;53.364;-1.488;2023-06-01T16:53:59;15.02;;;3.63;;
29878;SDS011;16752;53.364;-1.488;2023-06-01T16:56:46;11.07;;;3.50;;
29878;SDS011;16752;53.364;-1.488;2023-06-01T16:59:30;13.77;;;3.92;;
29878;SDS011;16752;53.364;-1.488;2023-06-01T17:02:18;18.35;;;4.70;;
29878;SDS011;16752;53.364;-1.488;2023-06-01T17:05:27;13.63;;;3.22;;
29878;SDS011;16752;53.364;-1.488;2023-06-01T17:08:14;9.20;;;3.53;;
29878;SDS011;16752;53.364;-1.488;2023-06-01T17:11:02;12.93;;;3.20;;
29878;SDS011;16752;53.364;-1.488;2023-06-01T17:13:58;7.80;;;2.53;;
29878;SDS011;16752;53.364;-1.488;2023-06-01T17:16:52;10.98;;;3.15;;
29878;SDS011;16752;53.364;-1.488;2023-06-01T17:19:50;8.25;;;3.38;;
29878;SDS011;16752;53.364;-1.488;2023-06-01T17:22:43;14.00;;;3.80;;
29878;SDS011;16752;53.364;-1.488;2023-06-01T17:25:28;9.25;;;3.83;;
29878;SDS011;16752;53.364;-1.488;2023-06-01T17:28:12;9.25;;;3.85;;
29878;SDS011;16752;53.364;-1.488;2023-06-01T17:31:00;10.63;;;3.65;;
29878;SDS011;16752;53.364;-1.488;2023-06-01T17:33:44;5.30;;;3.10;;
29878;SDS011;16752;53.364;-1.488;2023-06-01T17:36:35;11.23;;;4.35;;
29878;SDS011;16752;53.364;-1.488;2023-06-01T17:39:44;10.02;;;3.20;;